createdAt,value
2018-12-26T00:00:04.415Z,3.20
2018-12-26T00:01:04.633Z,3.20
2018-12-26T00:02:04.183Z,3.20
2018-12-26T00:03:04.974Z,3.20
2018-12-26T00:04:04.360Z,3.10
2018-12-26T00:05:04.398Z,3.20
2018-12-26T00:06:04.710Z,3.10
2018-12-26T00:07:05.169Z,3.20
2018-12-26T00:08:04.269Z,3.10
2018-12-26T00:09:04.287Z,3.10
2018-12-26T00:10:04.940Z,3.10
2018-12-26T00:11:04.441Z,3.10
2018-12-26T00:12:04.529Z,3.10
2018-12-26T00:13:05.110Z,3.10
2018-12-26T00:14:04.488Z,3.10
2018-12-26T00:15:04.964Z,3.10
2018-12-26T00:16:04.355Z,3.10
2018-12-26T00:17:04.531Z,3.10
2018-12-26T00:18:04.173Z,3.10
2018-12-26T00:19:04.423Z,3.10
2018-12-26T00:20:04.779Z,3.10
2018-12-26T00:21:05.155Z,3.10
2018-12-26T00:22:04.206Z,3.10
2018-12-26T00:23:04.443Z,3.10
2018-12-26T00:24:04.786Z,3.10
2018-12-26T00:25:05.110Z,3.10
2018-12-26T00:26:04.737Z,3.10
2018-12-26T00:27:04.725Z,3.10
2018-12-26T00:28:05.092Z,3.10
2018-12-26T00:29:04.647Z,3.10
2018-12-26T00:30:04.644Z,3.10
2018-12-26T00:31:04.772Z,3.10
2018-12-26T00:32:04.451Z,3.10
2018-12-26T00:33:04.548Z,3.10
2018-12-26T00:34:05.111Z,3.10
2018-12-26T00:35:04.300Z,3.10
2018-12-26T00:36:04.648Z,3.10
2018-12-26T00:37:04.963Z,3.10
2018-12-26T00:38:04.223Z,3.10
2018-12-26T00:39:04.439Z,3.10
2018-12-26T00:40:04.700Z,3.10
2018-12-26T00:41:04.344Z,3.10
2018-12-26T00:42:04.554Z,3.10
2018-12-26T00:43:05.020Z,3.10
2018-12-26T00:44:05.022Z,3.10
2018-12-26T00:45:04.549Z,3.10
2018-12-26T00:46:04.202Z,3.10
2018-12-26T00:47:04.359Z,3.10
2018-12-26T00:48:04.402Z,3.10
2018-12-26T00:49:04.563Z,3.10
2018-12-26T00:50:04.486Z,3.10
2018-12-26T00:51:04.455Z,3.10
2018-12-26T00:52:05.113Z,3.10
2018-12-26T00:53:04.463Z,3.10
2018-12-26T00:54:04.800Z,3.10
2018-12-26T00:55:05.030Z,3.10
2018-12-26T00:56:10.356Z,3.10
2018-12-26T00:57:04.295Z,3.10
2018-12-26T00:58:04.292Z,3.10
2018-12-26T00:59:04.611Z,3.10
2018-12-26T01:00:05.112Z,3.10
2018-12-26T01:01:04.702Z,3.10
2018-12-26T01:02:04.637Z,3.10
2018-12-26T01:03:04.999Z,3.10
2018-12-26T01:04:04.384Z,3.10
2018-12-26T01:05:04.819Z,3.10
2018-12-26T01:06:04.473Z,3.10
2018-12-26T01:07:04.887Z,3.10
2018-12-26T01:08:04.974Z,3.10
2018-12-26T01:09:05.111Z,3.10
2018-12-26T01:10:04.598Z,3.10
2018-12-26T01:11:05.099Z,3.10
2018-12-26T01:12:04.622Z,3.10
2018-12-26T01:13:04.627Z,3.10
2018-12-26T01:14:05.054Z,3.10
2018-12-26T01:15:04.158Z,3.10
2018-12-26T01:16:04.644Z,3.10
2018-12-26T01:17:04.859Z,3.10
2018-12-26T01:18:05.251Z,3.00
2018-12-26T01:19:04.618Z,3.10
2018-12-26T01:20:04.661Z,3.00
2018-12-26T01:21:05.063Z,3.00
2018-12-26T01:22:04.511Z,3.10
2018-12-26T01:23:04.664Z,3.00
2018-12-26T01:24:04.600Z,3.00
2018-12-26T01:25:04.847Z,3.00
2018-12-26T01:26:04.898Z,3.00
2018-12-26T01:27:04.835Z,3.00
2018-12-26T01:28:04.200Z,3.00
2018-12-26T01:29:04.707Z,3.00
2018-12-26T01:30:04.790Z,3.00
2018-12-26T01:31:04.822Z,3.00
2018-12-26T01:32:05.010Z,3.00
2018-12-26T01:33:05.172Z,3.00
2018-12-26T01:34:04.204Z,3.00
2018-12-26T01:35:04.242Z,3.00
2018-12-26T01:36:04.862Z,3.00
2018-12-26T01:37:04.937Z,3.00
2018-12-26T01:38:04.923Z,3.00
2018-12-26T01:39:05.039Z,3.00
2018-12-26T01:40:04.326Z,3.00
2018-12-26T01:41:04.433Z,3.00
2018-12-26T01:42:04.906Z,3.00
2018-12-26T01:43:04.222Z,3.00
2018-12-26T01:44:04.267Z,3.00
2018-12-26T01:45:04.527Z,3.00
2018-12-26T01:46:05.121Z,3.00
2018-12-26T01:47:04.319Z,3.00
2018-12-26T01:48:04.626Z,3.00
2018-12-26T01:49:09.900Z,3.00
2018-12-26T01:50:04.390Z,3.00
2018-12-26T01:51:05.095Z,3.00
2018-12-26T01:52:05.048Z,3.00
2018-12-26T01:53:04.680Z,3.00
2018-12-26T01:54:04.685Z,3.00
2018-12-26T01:55:04.705Z,3.00
2018-12-26T01:56:04.715Z,3.00
2018-12-26T01:57:04.829Z,3.00
2018-12-26T01:58:04.779Z,3.00
2018-12-26T01:59:06.970Z,3.00
2018-12-26T02:00:04.713Z,3.00
2018-12-26T02:01:05.175Z,3.00
2018-12-26T02:02:05.248Z,3.00
2018-12-26T02:03:04.525Z,3.00
2018-12-26T02:04:04.361Z,3.00
2018-12-26T02:05:05.071Z,3.00
2018-12-26T02:06:05.138Z,3.00
2018-12-26T02:07:04.724Z,3.00
2018-12-26T02:08:04.376Z,3.00
2018-12-26T02:09:04.384Z,3.00
2018-12-26T02:10:04.903Z,3.00
2018-12-26T02:11:04.211Z,3.00
2018-12-26T02:12:04.809Z,3.00
2018-12-26T02:13:04.810Z,3.00
2018-12-26T02:14:04.174Z,3.00
2018-12-26T02:15:04.257Z,3.00
2018-12-26T02:16:04.602Z,3.00
2018-12-26T02:17:05.109Z,3.00
2018-12-26T02:18:04.459Z,2.90
2018-12-26T02:19:04.805Z,3.00
2018-12-26T02:20:05.054Z,2.90
2018-12-26T02:21:05.297Z,3.00
2018-12-26T02:22:04.248Z,2.90
2018-12-26T02:23:04.277Z,2.90
2018-12-26T02:24:04.565Z,2.90
2018-12-26T02:25:04.856Z,2.90
2018-12-26T02:26:05.089Z,2.90
2018-12-26T02:27:05.156Z,2.90
2018-12-26T02:28:04.351Z,2.90
2018-12-26T02:29:09.332Z,2.90
2018-12-26T02:30:04.689Z,2.90
2018-12-26T02:31:04.759Z,2.90
2018-12-26T02:32:05.076Z,2.90
2018-12-26T02:33:04.360Z,2.90
2018-12-26T02:34:04.301Z,2.90
2018-12-26T02:35:04.829Z,2.90
2018-12-26T02:36:04.202Z,2.90
2018-12-26T02:37:04.436Z,2.90
2018-12-26T02:38:04.409Z,2.90
2018-12-26T02:39:04.512Z,2.90
2018-12-26T02:40:05.094Z,2.90
2018-12-26T02:41:04.581Z,2.90
2018-12-26T02:42:04.252Z,2.90
2018-12-26T02:43:04.712Z,2.90
2018-12-26T02:44:04.804Z,2.90
2018-12-26T02:45:04.908Z,2.90
2018-12-26T02:46:04.208Z,2.90
2018-12-26T02:47:04.491Z,2.90
2018-12-26T02:48:04.660Z,2.90
2018-12-26T02:49:05.072Z,2.90
2018-12-26T02:50:04.328Z,2.90
2018-12-26T02:51:04.377Z,2.90
2018-12-26T02:52:04.619Z,2.80
2018-12-26T02:53:04.895Z,2.90
2018-12-26T02:54:04.789Z,2.80
2018-12-26T02:55:04.377Z,2.90
2018-12-26T02:56:04.965Z,2.90
2018-12-26T02:57:09.987Z,2.90
2018-12-26T02:58:04.348Z,2.90
2018-12-26T02:59:04.700Z,2.90
2018-12-26T03:00:05.025Z,2.90
2018-12-26T03:01:05.293Z,2.80
2018-12-26T03:02:04.283Z,2.80
2018-12-26T03:03:04.872Z,2.80
2018-12-26T03:04:05.210Z,2.80
2018-12-26T03:05:05.238Z,2.80
2018-12-26T03:06:04.260Z,2.80
2018-12-26T03:07:04.380Z,2.80
2018-12-26T03:08:05.106Z,2.80
2018-12-26T03:09:04.533Z,2.80
2018-12-26T03:10:04.879Z,2.80
2018-12-26T03:11:04.805Z,2.80
2018-12-26T03:12:04.826Z,2.80
2018-12-26T03:13:05.160Z,2.80
2018-12-26T03:14:04.687Z,2.80
2018-12-26T03:15:04.980Z,2.80
2018-12-26T03:16:04.370Z,2.80
2018-12-26T03:17:04.396Z,2.80
2018-12-26T03:18:04.620Z,2.80
2018-12-26T03:19:05.046Z,2.80
2018-12-26T03:20:05.201Z,2.80
2018-12-26T03:21:04.708Z,2.80
2018-12-26T03:22:04.778Z,2.80
2018-12-26T03:23:04.808Z,2.80
2018-12-26T03:24:04.285Z,2.80
2018-12-26T03:25:04.516Z,2.80
2018-12-26T03:26:04.564Z,2.80
2018-12-26T03:27:05.236Z,2.80
2018-12-26T03:28:04.537Z,2.80
2018-12-26T03:29:09.591Z,2.80
2018-12-26T03:30:05.074Z,2.80
2018-12-26T03:31:04.245Z,2.80
2018-12-26T03:32:04.380Z,2.80
2018-12-26T03:33:04.465Z,2.70
2018-12-26T03:34:04.934Z,2.70
2018-12-26T03:35:04.796Z,2.70
2018-12-26T03:36:04.910Z,2.70
2018-12-26T03:37:04.606Z,2.70
2018-12-26T03:38:04.718Z,2.70
2018-12-26T03:39:04.904Z,2.70
2018-12-26T03:40:04.189Z,2.70
2018-12-26T03:41:04.624Z,2.70
2018-12-26T03:42:04.745Z,2.70
2018-12-26T03:43:04.788Z,2.70
2018-12-26T03:44:04.451Z,2.70
2018-12-26T03:45:04.537Z,2.70
2018-12-26T03:46:05.201Z,2.70
2018-12-26T03:47:04.713Z,2.70
2018-12-26T03:48:04.690Z,2.70
2018-12-26T03:49:10.096Z,2.60
2018-12-26T03:50:04.454Z,2.70
2018-12-26T03:51:04.608Z,2.70
2018-12-26T03:52:04.646Z,2.60
2018-12-26T03:53:04.299Z,2.60
2018-12-26T03:54:04.504Z,2.60
2018-12-26T03:55:04.553Z,2.60
2018-12-26T03:56:05.083Z,2.60
2018-12-26T03:57:06.132Z,2.60
2018-12-26T03:58:04.170Z,2.60
2018-12-26T03:59:04.532Z,2.60
2018-12-26T04:00:04.784Z,2.60
2018-12-26T04:01:04.988Z,2.60
2018-12-26T04:02:05.041Z,2.60
2018-12-26T04:03:05.185Z,2.60
2018-12-26T04:04:04.364Z,2.60
2018-12-26T04:05:04.617Z,2.60
2018-12-26T04:06:05.167Z,2.60
2018-12-26T04:07:04.509Z,2.60
2018-12-26T04:08:04.665Z,2.60
2018-12-26T04:09:05.059Z,2.60
2018-12-26T04:10:04.286Z,2.60
2018-12-26T04:11:04.348Z,2.60
2018-12-26T04:12:04.434Z,2.60
2018-12-26T04:13:04.596Z,2.60
2018-12-26T04:14:04.561Z,2.60
2018-12-26T04:15:05.127Z,2.60
2018-12-26T04:16:05.150Z,2.60
2018-12-26T04:17:04.274Z,2.60
2018-12-26T04:18:04.442Z,2.60
2018-12-26T04:19:05.044Z,2.60
2018-12-26T04:20:05.049Z,2.60
2018-12-26T04:21:05.251Z,2.60
2018-12-26T04:22:04.665Z,2.60
2018-12-26T04:23:05.072Z,2.60
2018-12-26T04:24:05.137Z,2.60
2018-12-26T04:25:04.235Z,2.60
2018-12-26T04:26:04.272Z,2.50
2018-12-26T04:27:04.315Z,2.60
2018-12-26T04:28:05.117Z,2.50
2018-12-26T04:29:09.295Z,2.50
2018-12-26T04:30:04.650Z,2.60
2018-12-26T04:31:04.790Z,2.50
2018-12-26T04:32:05.055Z,2.50
2018-12-26T04:33:05.083Z,2.50
2018-12-26T04:34:05.140Z,2.50
2018-12-26T04:35:04.371Z,2.50
2018-12-26T04:36:04.309Z,2.50
2018-12-26T04:37:04.937Z,2.50
2018-12-26T04:38:04.881Z,2.50
2018-12-26T04:39:04.952Z,2.50
2018-12-26T04:40:05.144Z,2.50
2018-12-26T04:41:05.172Z,2.50
2018-12-26T04:42:04.539Z,2.50
2018-12-26T04:43:04.994Z,2.50
2018-12-26T04:44:04.310Z,2.50
2018-12-26T04:45:04.539Z,2.50
2018-12-26T04:46:04.446Z,2.50
2018-12-26T04:47:04.744Z,2.50
2018-12-26T04:48:04.644Z,2.50
2018-12-26T04:49:10.043Z,2.50
2018-12-26T04:50:04.489Z,2.50
2018-12-26T04:51:04.819Z,2.50
2018-12-26T04:52:04.855Z,2.50
2018-12-26T04:53:05.092Z,2.50
2018-12-26T04:54:04.559Z,2.50
2018-12-26T04:55:04.629Z,2.40
2018-12-26T04:56:04.728Z,2.40
2018-12-26T04:57:04.729Z,2.40
2018-12-26T04:58:04.835Z,2.40
2018-12-26T04:59:04.791Z,2.40
2018-12-26T05:00:04.251Z,2.40
2018-12-26T05:01:04.318Z,2.40
2018-12-26T05:02:04.518Z,2.40
2018-12-26T05:03:04.531Z,2.40
2018-12-26T05:04:04.622Z,2.40
2018-12-26T05:05:04.771Z,2.40
2018-12-26T05:06:04.156Z,2.40
2018-12-26T05:07:04.812Z,2.40
2018-12-26T05:08:05.188Z,2.40
2018-12-26T05:09:05.092Z,2.40
2018-12-26T05:10:04.692Z,2.40
2018-12-26T05:11:05.048Z,2.40
2018-12-26T05:12:05.749Z,2.40
2018-12-26T05:13:04.451Z,2.40
2018-12-26T05:14:05.022Z,2.40
2018-12-26T05:15:05.115Z,2.40
2018-12-26T05:16:05.220Z,2.40
2018-12-26T05:17:04.585Z,2.40
2018-12-26T05:18:04.667Z,2.40
2018-12-26T05:19:04.862Z,2.40
2018-12-26T05:20:05.153Z,2.40
2018-12-26T05:21:04.277Z,2.40
2018-12-26T05:22:05.083Z,2.40
2018-12-26T05:23:05.037Z,2.40
2018-12-26T05:24:05.294Z,2.40
2018-12-26T05:25:04.882Z,2.40
2018-12-26T05:26:04.740Z,2.40
2018-12-26T05:27:05.005Z,2.40
2018-12-26T05:28:04.287Z,2.40
2018-12-26T05:29:09.488Z,2.40
2018-12-26T05:30:04.520Z,2.40
2018-12-26T05:31:04.403Z,2.40
2018-12-26T05:32:04.966Z,2.40
2018-12-26T05:33:04.474Z,2.40
2018-12-26T05:34:04.666Z,2.40
2018-12-26T05:35:04.814Z,2.40
2018-12-26T05:36:04.223Z,2.30
2018-12-26T05:37:04.632Z,2.30
2018-12-26T05:38:05.143Z,2.40
2018-12-26T05:39:04.448Z,2.30
2018-12-26T05:40:05.113Z,2.30
2018-12-26T05:41:04.644Z,2.30
2018-12-26T05:42:04.966Z,2.30
2018-12-26T05:43:05.075Z,2.30
2018-12-26T05:44:04.222Z,2.30
2018-12-26T05:45:04.318Z,2.30
2018-12-26T05:46:04.260Z,2.30
2018-12-26T05:47:04.598Z,2.30
2018-12-26T05:48:04.625Z,2.30
2018-12-26T05:49:09.646Z,2.30
2018-12-26T05:50:05.034Z,2.30
2018-12-26T05:51:05.065Z,2.30
2018-12-26T05:52:04.620Z,2.30
2018-12-26T05:53:05.170Z,2.30
2018-12-26T05:54:04.401Z,2.30
2018-12-26T05:55:04.495Z,2.30
2018-12-26T05:56:04.527Z,2.30
2018-12-26T05:57:04.678Z,2.30
2018-12-26T05:58:04.763Z,2.30
2018-12-26T05:59:04.815Z,2.30
2018-12-26T06:00:05.016Z,2.30
2018-12-26T06:01:05.027Z,2.30
2018-12-26T06:02:04.586Z,2.30
2018-12-26T06:03:04.744Z,2.30
2018-12-26T06:04:05.110Z,2.30
2018-12-26T06:05:04.351Z,2.20
2018-12-26T06:06:04.419Z,2.20
2018-12-26T06:07:04.815Z,2.20
2018-12-26T06:08:04.997Z,2.20
2018-12-26T06:09:04.675Z,2.20
2018-12-26T06:10:04.733Z,2.20
2018-12-26T06:11:04.738Z,2.20
2018-12-26T06:12:04.708Z,2.20
2018-12-26T06:13:04.801Z,2.20
2018-12-26T06:14:04.588Z,2.20
2018-12-26T06:15:05.003Z,2.20
2018-12-26T06:16:04.474Z,2.20
2018-12-26T06:17:04.469Z,2.20
2018-12-26T06:18:04.744Z,2.20
2018-12-26T06:19:05.101Z,2.20
2018-12-26T06:20:04.422Z,2.20
2018-12-26T06:21:04.499Z,2.20
2018-12-26T06:22:04.976Z,2.20
2018-12-26T06:23:04.454Z,2.20
2018-12-26T06:24:04.878Z,2.20
2018-12-26T06:25:05.079Z,2.20
2018-12-26T06:26:04.272Z,2.20
2018-12-26T06:27:05.018Z,2.20
2018-12-26T06:28:04.443Z,2.20
2018-12-26T06:29:10.003Z,2.20
2018-12-26T06:30:04.414Z,2.20
2018-12-26T06:31:04.432Z,2.20
2018-12-26T06:32:04.453Z,2.20
2018-12-26T06:33:04.896Z,2.20
2018-12-26T06:34:04.290Z,2.20
2018-12-26T06:35:04.799Z,2.20
2018-12-26T06:36:05.100Z,2.20
2018-12-26T06:37:04.350Z,2.20
2018-12-26T06:38:04.423Z,2.20
2018-12-26T06:39:04.784Z,2.20
2018-12-26T06:40:04.567Z,2.20
2018-12-26T06:41:05.164Z,2.20
2018-12-26T06:42:04.694Z,2.20
2018-12-26T06:43:05.097Z,2.20
2018-12-26T06:44:05.104Z,2.20
2018-12-26T06:45:04.224Z,2.20
2018-12-26T06:46:04.243Z,2.20
2018-12-26T06:47:04.195Z,2.20
2018-12-26T06:48:04.267Z,2.20
2018-12-26T06:49:04.412Z,2.20
2018-12-26T06:50:04.688Z,2.20
2018-12-26T06:51:04.761Z,2.20
2018-12-26T06:52:04.459Z,2.20
2018-12-26T06:53:04.904Z,2.20
2018-12-26T06:54:04.974Z,2.20
2018-12-26T06:55:05.164Z,2.20
2018-12-26T06:56:15.289Z,2.20
2018-12-26T06:57:04.798Z,2.20
2018-12-26T06:58:04.389Z,2.20
2018-12-26T06:59:04.671Z,2.20
2018-12-26T07:00:05.130Z,2.20
2018-12-26T07:01:04.790Z,2.20
2018-12-26T07:02:04.883Z,2.20
2018-12-26T07:03:05.055Z,2.10
2018-12-26T07:04:04.475Z,2.10
2018-12-26T07:05:05.050Z,2.10
2018-12-26T07:06:04.445Z,2.20
2018-12-26T07:07:04.558Z,2.20
2018-12-26T07:08:05.243Z,2.20
2018-12-26T07:09:04.342Z,2.10
2018-12-26T07:10:05.055Z,2.10
2018-12-26T07:11:04.581Z,2.10
2018-12-26T07:12:04.690Z,2.20
2018-12-26T07:13:04.724Z,2.20
2018-12-26T07:14:05.007Z,2.10
2018-12-26T07:15:05.035Z,2.10
2018-12-26T07:16:04.262Z,2.10
2018-12-26T07:17:04.812Z,2.10
2018-12-26T07:18:04.360Z,2.10
2018-12-26T07:19:04.720Z,2.10
2018-12-26T07:20:04.301Z,2.10
2018-12-26T07:21:04.557Z,2.10
2018-12-26T07:22:04.931Z,2.10
2018-12-26T07:23:05.042Z,2.10
2018-12-26T07:24:05.099Z,2.10
2018-12-26T07:25:04.596Z,2.10
2018-12-26T07:26:04.262Z,2.10
2018-12-26T07:27:04.520Z,2.10
2018-12-26T07:28:08.882Z,2.10
2018-12-26T07:29:05.191Z,2.10
2018-12-26T07:30:04.525Z,2.10
2018-12-26T07:31:04.636Z,2.10
2018-12-26T07:32:05.148Z,2.10
2018-12-26T07:33:05.051Z,2.10
2018-12-26T07:34:05.111Z,2.10
2018-12-26T07:35:04.413Z,2.10
2018-12-26T07:36:04.762Z,2.10
2018-12-26T07:37:04.914Z,2.10
2018-12-26T07:38:04.966Z,2.10
2018-12-26T07:39:05.131Z,2.10
2018-12-26T07:40:04.429Z,2.10
2018-12-26T07:41:04.965Z,2.10
2018-12-26T07:42:04.979Z,2.00
2018-12-26T07:43:05.177Z,2.00
2018-12-26T07:44:04.215Z,2.10
2018-12-26T07:45:04.445Z,2.10
2018-12-26T07:46:04.860Z,2.00
2018-12-26T07:47:04.365Z,2.00
2018-12-26T07:48:04.900Z,2.00
2018-12-26T07:49:05.212Z,2.10
2018-12-26T07:50:04.304Z,2.00
2018-12-26T07:51:04.705Z,2.00
2018-12-26T07:52:04.697Z,2.00
2018-12-26T07:53:04.438Z,2.00
2018-12-26T07:54:04.578Z,2.00
2018-12-26T07:55:04.894Z,2.00
2018-12-26T07:56:05.553Z,2.00
2018-12-26T07:57:05.245Z,2.00
2018-12-26T07:58:04.305Z,2.00
2018-12-26T07:59:04.976Z,2.00
2018-12-26T08:00:04.445Z,2.10
2018-12-26T08:01:04.419Z,2.10
2018-12-26T08:02:05.128Z,2.00
2018-12-26T08:03:05.102Z,2.10
2018-12-26T08:04:04.183Z,2.10
2018-12-26T08:05:04.444Z,2.00
2018-12-26T08:06:04.945Z,2.00
2018-12-26T08:07:04.941Z,2.00
2018-12-26T08:08:04.441Z,2.10
2018-12-26T08:09:04.591Z,2.10
2018-12-26T08:10:04.667Z,2.00
2018-12-26T08:11:04.672Z,2.00
2018-12-26T08:12:04.324Z,2.00
2018-12-26T08:13:04.547Z,2.00
2018-12-26T08:14:04.594Z,2.00
2018-12-26T08:15:10.413Z,2.10
2018-12-26T08:16:04.481Z,2.00
2018-12-26T08:17:04.715Z,2.10
2018-12-26T08:18:04.345Z,2.10
2018-12-26T08:19:04.361Z,2.10
2018-12-26T08:20:04.496Z,2.10
2018-12-26T08:21:04.856Z,2.10
2018-12-26T08:22:04.900Z,2.10
2018-12-26T08:23:04.355Z,2.10
2018-12-26T08:24:04.911Z,2.10
2018-12-26T08:25:05.261Z,2.10
2018-12-26T08:26:04.214Z,2.10
2018-12-26T08:27:04.527Z,2.10
2018-12-26T08:28:04.438Z,2.10
2018-12-26T08:29:09.518Z,2.10
2018-12-26T08:30:05.036Z,2.10
2018-12-26T08:31:04.407Z,2.10
2018-12-26T08:32:05.149Z,2.10
2018-12-26T08:33:04.302Z,2.10
2018-12-26T08:34:04.597Z,2.10
2018-12-26T08:35:04.682Z,2.10
2018-12-26T08:36:05.056Z,2.10
2018-12-26T08:37:05.067Z,2.10
2018-12-26T08:38:04.232Z,2.10
2018-12-26T08:39:04.842Z,2.10
2018-12-26T08:40:04.938Z,2.10
2018-12-26T08:41:04.269Z,2.10
2018-12-26T08:42:04.754Z,2.10
2018-12-26T08:43:05.009Z,2.10
2018-12-26T08:44:05.112Z,2.10
2018-12-26T08:45:05.242Z,2.10
2018-12-26T08:46:04.279Z,2.10
2018-12-26T08:47:04.886Z,2.10
2018-12-26T08:48:04.913Z,2.10
2018-12-26T08:49:04.369Z,2.10
2018-12-26T08:50:04.867Z,2.10
2018-12-26T08:51:04.997Z,2.10
2018-12-26T08:52:05.166Z,2.20
2018-12-26T08:53:05.216Z,2.20
2018-12-26T08:54:04.402Z,2.20
2018-12-26T08:55:05.108Z,2.20
2018-12-26T08:56:04.383Z,2.20
2018-12-26T08:57:04.386Z,2.20
2018-12-26T08:58:04.441Z,2.20
2018-12-26T08:59:05.023Z,2.20
2018-12-26T09:00:05.111Z,2.20
2018-12-26T09:01:04.423Z,2.20
2018-12-26T09:02:04.419Z,2.20
2018-12-26T09:03:04.737Z,2.20
2018-12-26T09:04:04.904Z,2.20
2018-12-26T09:05:05.055Z,2.30
2018-12-26T09:06:04.427Z,2.20
2018-12-26T09:07:04.693Z,2.20
2018-12-26T09:08:04.701Z,2.30
2018-12-26T09:09:04.754Z,2.30
2018-12-26T09:10:04.710Z,2.30
2018-12-26T09:11:04.818Z,2.30
2018-12-26T09:12:04.815Z,2.30
2018-12-26T09:13:04.518Z,2.30
2018-12-26T09:14:04.910Z,2.30
2018-12-26T09:15:05.019Z,2.30
2018-12-26T09:16:05.085Z,2.30
2018-12-26T09:17:05.087Z,2.30
2018-12-26T09:18:05.098Z,2.40
2018-12-26T09:19:04.246Z,2.40
2018-12-26T09:20:04.746Z,2.40
2018-12-26T09:21:04.651Z,2.40
2018-12-26T09:22:04.679Z,2.40
2018-12-26T09:23:04.673Z,2.40
2018-12-26T09:24:04.983Z,2.40
2018-12-26T09:25:05.123Z,2.40
2018-12-26T09:26:04.391Z,2.40
2018-12-26T09:27:04.765Z,2.40
2018-12-26T09:28:04.793Z,2.50
2018-12-26T09:29:05.258Z,2.50
2018-12-26T09:30:04.301Z,2.50
2018-12-26T09:31:04.441Z,2.50
2018-12-26T09:32:04.349Z,2.50
2018-12-26T09:33:04.391Z,2.50
2018-12-26T09:34:04.591Z,2.50
2018-12-26T09:35:04.652Z,2.50
2018-12-26T09:36:04.441Z,2.50
2018-12-26T09:37:04.678Z,2.50
2018-12-26T09:38:05.187Z,2.50
2018-12-26T09:39:04.403Z,2.60
2018-12-26T09:40:04.405Z,2.60
2018-12-26T09:41:04.358Z,2.60
2018-12-26T09:42:04.980Z,2.60
2018-12-26T09:43:05.021Z,2.60
2018-12-26T09:44:05.122Z,2.60
2018-12-26T09:45:05.286Z,2.60
2018-12-26T09:46:04.517Z,2.60
2018-12-26T09:47:04.847Z,2.70
2018-12-26T09:48:04.923Z,2.70
2018-12-26T09:49:05.212Z,2.70
2018-12-26T09:50:04.266Z,2.70
2018-12-26T09:51:04.280Z,2.70
2018-12-26T09:52:04.222Z,2.70
2018-12-26T09:53:04.732Z,2.70
2018-12-26T09:54:04.560Z,2.80
2018-12-26T09:55:04.713Z,2.80
2018-12-26T09:56:05.055Z,2.80
2018-12-26T09:57:04.547Z,2.80
2018-12-26T09:58:05.054Z,2.90
2018-12-26T09:59:05.151Z,2.90
2018-12-26T10:00:04.364Z,2.90
2018-12-26T10:01:04.708Z,2.90
2018-12-26T10:02:04.800Z,2.90
2018-12-26T10:03:04.424Z,2.90
2018-12-26T10:04:09.572Z,2.90
2018-12-26T10:05:05.032Z,2.90
2018-12-26T10:06:04.612Z,3.00
2018-12-26T10:07:04.843Z,3.00
2018-12-26T10:08:04.946Z,3.00
2018-12-26T10:09:04.584Z,3.00
2018-12-26T10:10:04.997Z,3.00
2018-12-26T10:11:04.491Z,3.00
2018-12-26T10:12:04.381Z,3.00
2018-12-26T10:13:04.473Z,3.00
2018-12-26T10:14:04.526Z,3.00
2018-12-26T10:15:04.561Z,3.00
2018-12-26T10:16:04.944Z,3.00
2018-12-26T10:17:04.601Z,3.00
2018-12-26T10:18:04.943Z,3.00
2018-12-26T10:19:04.993Z,3.00
2018-12-26T10:20:04.543Z,3.00
2018-12-26T10:21:04.561Z,3.00
2018-12-26T10:22:04.162Z,3.00
2018-12-26T10:23:04.865Z,3.00
2018-12-26T10:24:05.085Z,3.00
2018-12-26T10:25:04.619Z,3.00
2018-12-26T10:26:04.746Z,3.00
2018-12-26T10:27:04.882Z,3.10
2018-12-26T10:28:04.920Z,3.10
2018-12-26T10:29:04.496Z,3.10
2018-12-26T10:30:04.299Z,3.10
2018-12-26T10:31:04.956Z,3.10
2018-12-26T10:32:04.968Z,3.10
2018-12-26T10:33:05.066Z,3.10
2018-12-26T10:34:04.840Z,3.20
2018-12-26T10:35:04.443Z,3.20
2018-12-26T10:36:04.708Z,3.20
2018-12-26T10:37:04.640Z,3.20
2018-12-26T10:38:09.731Z,3.20
2018-12-26T10:39:05.131Z,3.20
2018-12-26T10:40:04.830Z,3.20
2018-12-26T10:41:05.118Z,3.20
2018-12-26T10:42:04.344Z,3.20
2018-12-26T10:43:04.823Z,3.20
2018-12-26T10:44:04.896Z,3.20
2018-12-26T10:45:05.150Z,3.20
2018-12-26T10:46:04.578Z,3.30
2018-12-26T10:47:04.768Z,3.30
2018-12-26T10:48:04.706Z,3.30
2018-12-26T10:49:04.684Z,3.30
2018-12-26T10:50:04.336Z,3.30
2018-12-26T10:51:04.990Z,3.30
2018-12-26T10:52:04.425Z,3.30
2018-12-26T10:53:04.593Z,3.30
2018-12-26T10:54:05.110Z,3.30
2018-12-26T10:55:04.230Z,3.30
2018-12-26T10:56:04.765Z,3.30
2018-12-26T10:57:04.593Z,3.30
2018-12-26T10:58:04.524Z,3.30
2018-12-26T10:59:09.882Z,3.30
2018-12-26T11:00:04.937Z,3.30
2018-12-26T11:01:05.211Z,3.30
2018-12-26T11:02:05.239Z,3.30
2018-12-26T11:03:04.681Z,3.30
2018-12-26T11:04:05.154Z,3.30
2018-12-26T11:05:04.626Z,3.30
2018-12-26T11:06:05.006Z,3.30
2018-12-26T11:07:05.077Z,3.30
2018-12-26T11:08:04.521Z,3.30
2018-12-26T11:09:04.495Z,3.30
2018-12-26T11:10:05.016Z,3.30
2018-12-26T11:11:04.882Z,3.30
2018-12-26T11:12:04.844Z,3.30
2018-12-26T11:13:05.109Z,3.30
2018-12-26T11:14:04.603Z,3.30
2018-12-26T11:15:04.637Z,3.30
2018-12-26T11:16:04.613Z,3.30
2018-12-26T11:17:04.473Z,3.30
2018-12-26T11:18:04.397Z,3.30
2018-12-26T11:19:04.440Z,3.40
2018-12-26T11:20:04.677Z,3.40
2018-12-26T11:21:04.476Z,3.40
2018-12-26T11:22:04.425Z,3.40
2018-12-26T11:23:04.402Z,3.40
2018-12-26T11:24:05.001Z,3.40
2018-12-26T11:25:04.991Z,3.40
2018-12-26T11:26:04.640Z,3.40
2018-12-26T11:27:04.782Z,3.40
2018-12-26T11:28:04.239Z,3.40
2018-12-26T11:29:18.297Z,3.40
2018-12-26T11:30:04.204Z,3.40
2018-12-26T11:31:04.403Z,3.40
2018-12-26T11:32:04.492Z,3.40
2018-12-26T11:33:04.836Z,3.40
2018-12-26T11:34:05.062Z,3.50
2018-12-26T11:35:05.088Z,3.50
2018-12-26T11:36:04.456Z,3.50
2018-12-26T11:37:04.983Z,3.50
2018-12-26T11:38:05.120Z,3.50
2018-12-26T11:39:04.439Z,3.50
2018-12-26T11:40:04.525Z,3.50
2018-12-26T11:41:05.242Z,3.50
2018-12-26T11:42:04.879Z,3.50
2018-12-26T11:43:05.066Z,3.50
2018-12-26T11:44:05.227Z,3.50
2018-12-26T11:45:05.134Z,3.50
2018-12-26T11:46:04.337Z,3.60
2018-12-26T11:47:05.111Z,3.50
2018-12-26T11:48:05.034Z,3.50
2018-12-26T11:49:04.227Z,3.60
2018-12-26T11:50:04.893Z,3.50
2018-12-26T11:51:04.531Z,3.60
2018-12-26T11:52:07.102Z,3.60
2018-12-26T11:53:04.390Z,3.60
2018-12-26T11:54:04.554Z,3.60
2018-12-26T11:55:04.670Z,3.60
2018-12-26T11:56:04.807Z,3.60
2018-12-26T11:57:05.115Z,3.60
2018-12-26T11:58:04.810Z,3.60
2018-12-26T11:59:05.245Z,3.60
2018-12-26T12:00:04.665Z,3.60
2018-12-26T12:01:04.745Z,3.60
2018-12-26T12:02:04.960Z,3.60
2018-12-26T12:03:04.252Z,3.70
2018-12-26T12:04:04.504Z,3.70
2018-12-26T12:05:05.178Z,3.70
2018-12-26T12:06:04.482Z,3.70
2018-12-26T12:07:04.484Z,3.70
2018-12-26T12:08:04.786Z,3.70
2018-12-26T12:09:04.918Z,3.70
2018-12-26T12:10:05.189Z,3.70
2018-12-26T12:11:04.481Z,3.70
2018-12-26T12:12:04.344Z,3.70
2018-12-26T12:13:04.684Z,3.70
2018-12-26T12:14:05.126Z,3.70
2018-12-26T12:15:04.629Z,3.70
2018-12-26T12:16:04.788Z,3.80
2018-12-26T12:17:04.796Z,3.80
2018-12-26T12:18:04.949Z,3.80
2018-12-26T12:19:04.790Z,3.80
2018-12-26T12:20:04.948Z,3.80
2018-12-26T12:21:04.227Z,3.80
2018-12-26T12:22:04.263Z,3.80
2018-12-26T12:23:04.579Z,3.80
2018-12-26T12:24:04.710Z,3.80
2018-12-26T12:25:04.607Z,3.80
2018-12-26T12:26:05.009Z,3.80
2018-12-26T12:27:05.123Z,3.80
2018-12-26T12:28:04.236Z,3.80
2018-12-26T12:29:09.344Z,3.80
2018-12-26T12:30:04.721Z,3.80
2018-12-26T12:31:04.882Z,3.80
2018-12-26T12:32:04.943Z,3.80
2018-12-26T12:33:05.190Z,3.80
2018-12-26T12:34:04.269Z,3.80
2018-12-26T12:35:04.502Z,3.80
2018-12-26T12:36:04.498Z,3.80
2018-12-26T12:37:04.597Z,3.80
2018-12-26T12:38:04.768Z,3.80
2018-12-26T12:39:05.338Z,3.90
2018-12-26T12:40:04.257Z,3.80
2018-12-26T12:41:04.796Z,3.80
2018-12-26T12:42:04.897Z,3.90
2018-12-26T12:43:05.121Z,3.80
2018-12-26T12:44:04.989Z,3.90
2018-12-26T12:45:05.046Z,3.90
2018-12-26T12:46:04.341Z,3.90
2018-12-26T12:47:04.528Z,3.90
2018-12-26T12:48:04.631Z,3.90
2018-12-26T12:49:10.217Z,3.90
2018-12-26T12:50:04.792Z,3.90
2018-12-26T12:51:04.173Z,3.90
2018-12-26T12:52:04.527Z,3.90
2018-12-26T12:53:05.075Z,3.90
2018-12-26T12:54:04.263Z,3.90
2018-12-26T12:55:04.424Z,3.90
2018-12-26T12:56:11.659Z,3.90
2018-12-26T12:57:04.670Z,3.90
2018-12-26T12:58:04.283Z,3.90
2018-12-26T12:59:04.185Z,3.90
2018-12-26T13:00:04.527Z,3.90
2018-12-26T13:01:06.271Z,3.90
2018-12-26T13:02:04.911Z,3.90
2018-12-26T13:03:05.013Z,3.90
2018-12-26T13:04:05.300Z,3.90
2018-12-26T13:05:05.232Z,3.90
2018-12-26T13:06:04.689Z,3.90
2018-12-26T13:07:05.270Z,3.90
2018-12-26T13:08:04.635Z,3.90
2018-12-26T13:09:04.746Z,3.90
2018-12-26T13:10:04.841Z,3.90
2018-12-26T13:11:04.842Z,3.90
2018-12-26T13:12:05.065Z,3.90
2018-12-26T13:13:05.014Z,3.90
2018-12-26T13:14:05.105Z,3.90
2018-12-26T13:15:04.246Z,3.90
2018-12-26T13:16:04.280Z,3.90
2018-12-26T13:17:04.526Z,3.90
2018-12-26T13:18:05.004Z,3.90